createdAt,value
2017-10-13T00:02:17.223Z,5.40
2017-10-13T00:04:44.787Z,6.07
2017-10-13T00:07:12.369Z,5.30
2017-10-13T00:09:39.941Z,5.03
2017-10-13T00:12:07.517Z,5.60
2017-10-13T00:14:35.106Z,5.20
2017-10-13T00:17:02.696Z,5.00
2017-10-13T00:19:30.935Z,5.50
2017-10-13T00:21:58.660Z,5.30
2017-10-13T00:24:26.241Z,5.20
2017-10-13T00:26:54.222Z,4.90
2017-10-13T00:29:21.814Z,5.30
2017-10-13T00:31:49.385Z,5.17
2017-10-13T00:34:17.363Z,4.13
2017-10-13T00:36:44.937Z,4.73
2017-10-13T00:39:12.570Z,6.20
2017-10-13T00:41:40.154Z,5.53
2017-10-13T00:44:07.894Z,5.43
2017-10-13T00:46:35.488Z,5.40
2017-10-13T00:49:03.055Z,5.13
2017-10-13T00:51:30.954Z,4.83
2017-10-13T00:53:58.516Z,4.77
2017-10-13T00:56:26.085Z,4.80
2017-10-13T00:58:53.679Z,4.37
2017-10-13T01:01:21.232Z,4.10
2017-10-13T01:03:49.152Z,5.07
2017-10-13T01:06:16.737Z,4.90
2017-10-13T01:08:44.323Z,4.60
2017-10-13T01:11:11.887Z,5.23
2017-10-13T01:13:39.460Z,4.97
2017-10-13T01:16:07.060Z,4.90
2017-10-13T01:18:34.625Z,4.30
2017-10-13T01:21:02.686Z,5.67
2017-10-13T01:23:30.239Z,4.97
2017-10-13T01:25:58.128Z,4.90
2017-10-13T01:28:25.773Z,4.53
2017-10-13T01:30:54.726Z,4.77
2017-10-13T01:33:22.454Z,4.50
2017-10-13T01:35:50.404Z,6.43
2017-10-13T01:38:18.006Z,5.17
2017-10-13T01:40:45.568Z,4.90
2017-10-13T01:43:14.876Z,5.67
2017-10-13T01:45:43.074Z,5.00
2017-10-13T01:48:10.629Z,4.57
2017-10-13T01:50:38.236Z,4.70
2017-10-13T01:53:05.787Z,4.47
2017-10-13T01:55:33.662Z,4.40
2017-10-13T01:58:01.214Z,4.27
2017-10-13T02:00:29.020Z,4.97
2017-10-13T02:02:57.211Z,4.10
2017-10-13T02:05:24.778Z,4.37
2017-10-13T02:07:52.371Z,4.00
2017-10-13T02:10:20.741Z,4.27
2017-10-13T02:12:48.762Z,4.20
2017-10-13T02:15:16.530Z,4.40
2017-10-13T02:17:44.123Z,4.30
2017-10-13T02:20:11.707Z,4.30
2017-10-13T02:22:39.276Z,5.43
2017-10-13T02:25:07.249Z,5.30
2017-10-13T02:27:34.816Z,5.83
2017-10-13T02:30:02.797Z,5.83
2017-10-13T02:32:30.416Z,4.73
2017-10-13T02:34:57.965Z,4.00
2017-10-13T02:37:25.558Z,4.50
2017-10-13T02:39:53.197Z,4.57
2017-10-13T02:42:21.213Z,4.83
2017-10-13T02:44:48.789Z,4.90
2017-10-13T02:47:16.338Z,4.77
2017-10-13T02:49:44.171Z,4.70
2017-10-13T02:52:11.734Z,4.80
2017-10-13T02:54:39.318Z,4.70
2017-10-13T02:57:07.053Z,4.00
2017-10-13T02:59:35.824Z,4.40
2017-10-13T03:02:03.404Z,4.70
2017-10-13T03:04:30.956Z,4.80
2017-10-13T03:06:58.570Z,5.00
2017-10-13T03:09:26.517Z,4.40
2017-10-13T03:11:54.119Z,4.83
2017-10-13T03:14:21.761Z,4.70
2017-10-13T03:16:49.350Z,4.43
2017-10-13T03:19:17.223Z,5.20
2017-10-13T03:21:44.794Z,5.47
2017-10-13T03:24:12.376Z,4.87
2017-10-13T03:26:40.309Z,4.40
2017-10-13T03:29:07.947Z,4.77
2017-10-13T03:31:35.519Z,4.70
2017-10-13T03:34:03.111Z,4.57
2017-10-13T03:36:30.673Z,4.40
2017-10-13T03:38:58.371Z,4.30
2017-10-13T03:41:25.937Z,4.03
2017-10-13T03:43:53.663Z,5.00
2017-10-13T03:46:21.456Z,4.50
2017-10-13T03:48:49.025Z,4.80
2017-10-13T03:51:16.607Z,4.97
2017-10-13T03:53:44.159Z,4.83
2017-10-13T03:56:11.741Z,4.80
2017-10-13T03:58:39.541Z,5.00
2017-10-13T04:01:07.440Z,4.50
2017-10-13T04:03:34.989Z,5.60
2017-10-13T04:06:02.555Z,5.50
2017-10-13T04:08:30.129Z,5.03
2017-10-13T04:10:57.679Z,5.60
2017-10-13T04:13:25.252Z,4.60
2017-10-13T04:15:52.834Z,4.03
2017-10-13T04:18:20.402Z,3.77
2017-10-13T04:20:48.014Z,3.47
2017-10-13T04:23:15.599Z,3.40
2017-10-13T04:25:43.493Z,3.70
2017-10-13T04:28:11.051Z,3.93
2017-10-13T04:30:38.637Z,2.90
2017-10-13T04:33:06.256Z,3.50
2017-10-13T04:35:33.819Z,3.60
2017-10-13T04:38:01.392Z,3.10
2017-10-13T04:40:29.089Z,3.33
2017-10-13T04:42:56.686Z,3.90
2017-10-13T04:45:24.350Z,3.23
2017-10-13T04:47:51.946Z,3.60
2017-10-13T04:50:20.947Z,3.50
2017-10-13T04:52:48.513Z,3.43
2017-10-13T04:55:16.101Z,3.10
2017-10-13T04:57:43.702Z,3.20
2017-10-13T05:00:11.870Z,3.27
2017-10-13T05:02:39.442Z,3.33
2017-10-13T05:05:07.026Z,4.00
2017-10-13T05:07:34.671Z,3.60
2017-10-13T05:10:02.252Z,3.20
2017-10-13T05:12:29.879Z,4.10
2017-10-13T05:14:57.466Z,4.23
2017-10-13T05:17:25.038Z,4.30
2017-10-13T05:19:52.732Z,4.23
2017-10-13T05:22:20.283Z,4.60
2017-10-13T05:24:47.860Z,3.77
2017-10-13T05:27:16.418Z,3.97
2017-10-13T05:29:43.986Z,3.83
2017-10-13T05:32:11.588Z,4.03
2017-10-13T05:34:39.574Z,3.10
2017-10-13T05:37:07.474Z,4.53
2017-10-13T05:39:35.129Z,4.30
2017-10-13T05:42:02.698Z,4.70
2017-10-13T05:44:30.314Z,3.47
2017-10-13T05:46:59.322Z,4.03
2017-10-13T05:49:27.463Z,4.00
2017-10-13T05:51:55.033Z,4.20
2017-10-13T05:54:22.930Z,3.90
2017-10-13T05:56:50.502Z,4.17
2017-10-13T05:59:19.770Z,4.63
2017-10-13T06:01:47.586Z,4.97
2017-10-13T06:04:15.144Z,5.10
2017-10-13T06:06:42.851Z,5.23
2017-10-13T06:09:10.393Z,5.90
2017-10-13T06:11:37.995Z,7.00
2017-10-13T06:14:05.572Z,5.60
2017-10-13T06:16:33.171Z,6.07
2017-10-13T06:19:00.755Z,6.80
2017-10-13T06:21:28.350Z,6.70
2017-10-13T06:23:55.957Z,6.67
2017-10-13T06:26:23.538Z,5.90
2017-10-13T06:28:51.111Z,7.00
2017-10-13T06:31:18.705Z,7.93
2017-10-13T06:33:46.306Z,8.10
2017-10-13T06:36:13.913Z,7.83
2017-10-13T06:38:41.514Z,7.43
2017-10-13T06:41:09.749Z,7.97
2017-10-13T06:43:37.355Z,8.27
2017-10-13T06:46:05.097Z,8.40
2017-10-13T06:48:32.684Z,8.73
2017-10-13T06:51:00.241Z,7.20
2017-10-13T06:53:27.848Z,6.63
2017-10-13T06:55:55.752Z,7.47
2017-10-13T06:58:23.326Z,5.63
2017-10-13T07:00:50.908Z,6.13
2017-10-13T07:03:18.478Z,5.80
2017-10-13T07:05:46.444Z,5.30
2017-10-13T07:08:14.038Z,6.20
2017-10-13T07:10:41.640Z,6.40
2017-10-13T07:13:09.211Z,7.03
2017-10-13T07:15:36.787Z,6.60
2017-10-13T07:18:04.400Z,6.50
2017-10-13T07:20:31.960Z,6.70
2017-10-13T07:23:00.111Z,6.30
2017-10-13T07:25:27.695Z,6.70
2017-10-13T07:27:55.272Z,7.37
2017-10-13T07:30:22.873Z,7.77
2017-10-13T07:32:50.450Z,7.83
2017-10-13T07:35:18.220Z,7.30
2017-10-13T07:37:45.793Z,8.20
2017-10-13T07:40:13.715Z,8.40
2017-10-13T07:42:41.330Z,7.30
2017-10-13T07:45:08.909Z,8.33
2017-10-13T07:47:36.485Z,7.90
2017-10-13T07:50:04.037Z,7.83
2017-10-13T07:52:31.662Z,8.93
2017-10-13T07:54:59.220Z,8.87
2017-10-13T07:57:26.802Z,8.70
2017-10-13T07:59:54.402Z,9.43
2017-10-13T08:02:21.984Z,8.80
2017-10-13T08:04:49.597Z,9.20
2017-10-13T08:07:17.173Z,8.80
2017-10-13T08:09:44.823Z,8.67
2017-10-13T08:12:12.415Z,8.90
2017-10-13T08:14:40.971Z,9.30
2017-10-13T08:17:09.002Z,9.53
2017-10-13T08:19:36.563Z,9.60
2017-10-13T08:22:04.520Z,9.77
2017-10-13T08:24:32.094Z,9.97
2017-10-13T08:26:59.690Z,9.97
2017-10-13T08:29:27.302Z,10.00
2017-10-13T08:31:54.893Z,9.83
2017-10-13T08:34:22.823Z,10.40
2017-10-13T08:36:50.393Z,9.73
2017-10-13T08:39:17.960Z,9.37
2017-10-13T08:41:45.545Z,9.60
2017-10-13T08:44:13.883Z,8.53
2017-10-13T08:46:41.466Z,7.43
2017-10-13T08:49:09.151Z,8.57
2017-10-13T08:51:36.732Z,7.90
2017-10-13T08:54:04.314Z,7.60
2017-10-13T08:56:31.910Z,7.80
2017-10-13T08:58:59.528Z,7.60
2017-10-13T09:01:27.086Z,7.07
2017-10-13T09:03:54.647Z,6.90
2017-10-13T09:06:22.212Z,6.70
2017-10-13T09:11:17.421Z,5.50
2017-10-13T09:13:45.013Z,5.20
2017-10-13T09:16:12.629Z,5.60
2017-10-13T09:18:40.194Z,5.20
2017-10-13T09:21:07.821Z,5.00
2017-10-13T09:23:35.588Z,5.20
2017-10-13T09:26:03.137Z,5.37
2017-10-13T09:28:30.714Z,4.93
2017-10-13T09:30:58.276Z,5.03
2017-10-13T09:33:25.952Z,4.70
2017-10-13T09:35:53.537Z,5.00
2017-10-13T09:38:22.082Z,5.17
2017-10-13T09:40:49.747Z,4.27
2017-10-13T09:43:17.289Z,5.03
2017-10-13T09:45:44.871Z,3.90
2017-10-13T09:48:12.445Z,3.43
2017-10-13T09:50:40.038Z,3.20
2017-10-13T09:53:07.597Z,3.40
2017-10-13T09:55:35.168Z,2.90
2017-10-13T09:58:02.833Z,2.90
2017-10-13T10:00:30.436Z,2.73
2017-10-13T10:02:58.028Z,2.20
2017-10-13T10:05:25.699Z,2.30
2017-10-13T10:07:53.299Z,2.53
2017-10-13T10:10:20.889Z,1.97
2017-10-13T10:12:48.467Z,2.30
2017-10-13T10:15:16.066Z,2.07
2017-10-13T10:17:43.658Z,1.70
2017-10-13T10:20:11.599Z,2.20
2017-10-13T10:22:39.160Z,2.10
2017-10-13T10:25:06.721Z,1.90
2017-10-13T10:27:34.480Z,1.63
2017-10-13T10:30:02.062Z,2.00
2017-10-13T10:32:29.718Z,1.90
2017-10-13T10:34:57.333Z,1.83
2017-10-13T10:37:25.234Z,1.90
2017-10-13T10:39:52.795Z,1.37
2017-10-13T10:42:20.374Z,1.57
2017-10-13T10:44:47.977Z,1.37
2017-10-13T10:47:15.544Z,1.30
2017-10-13T10:49:44.406Z,1.30
2017-10-13T10:52:11.967Z,1.80
2017-10-13T10:54:39.813Z,1.70
2017-10-13T10:57:07.404Z,1.90
2017-10-13T10:59:34.988Z,1.20
2017-10-13T11:02:02.600Z,2.10
2017-10-13T11:04:30.149Z,1.53
2017-10-13T11:06:57.745Z,1.40
2017-10-13T11:09:25.293Z,1.67
2017-10-13T11:11:53.201Z,1.53
2017-10-13T11:14:20.800Z,1.47
2017-10-13T11:16:48.490Z,1.60
2017-10-13T11:19:16.343Z,1.30
2017-10-13T11:21:43.900Z,1.63
2017-10-13T11:24:11.932Z,1.40
2017-10-13T11:26:39.560Z,1.47
2017-10-13T11:29:07.276Z,1.33
2017-10-13T11:31:34.867Z,1.77
2017-10-13T11:34:02.424Z,2.10
2017-10-13T11:36:30.074Z,2.03
2017-10-13T11:38:57.618Z,1.50
2017-10-13T11:41:25.248Z,1.70
2017-10-13T11:43:52.813Z,1.50
2017-10-13T11:46:20.375Z,1.80
2017-10-13T11:48:47.977Z,1.90
2017-10-13T11:51:15.547Z,1.50
2017-10-13T11:53:43.121Z,1.77
2017-10-13T11:56:10.789Z,2.03
2017-10-13T11:58:38.368Z,2.03
2017-10-13T12:01:06.389Z,1.97
2017-10-13T12:03:34.842Z,1.80
2017-10-13T12:06:02.491Z,1.70
2017-10-13T12:08:30.092Z,1.77
2017-10-13T12:10:57.699Z,2.10
2017-10-13T12:13:25.279Z,1.70
2017-10-13T12:15:52.888Z,1.80
2017-10-13T12:18:20.459Z,1.73
2017-10-13T12:20:48.346Z,1.60
2017-10-13T12:23:15.913Z,1.90
2017-10-13T12:25:43.486Z,1.70
2017-10-13T12:28:11.101Z,1.70
2017-10-13T12:30:38.705Z,1.47
2017-10-13T12:33:06.575Z,1.50
2017-10-13T12:35:34.172Z,2.80
2017-10-13T12:38:01.756Z,2.93
2017-10-13T12:40:29.359Z,3.00
2017-10-13T12:42:56.923Z,3.03
2017-10-13T12:45:24.671Z,2.73
2017-10-13T12:47:52.235Z,1.77
2017-10-13T12:50:19.825Z,1.90
2017-10-13T12:52:47.702Z,1.70
2017-10-13T12:55:15.288Z,1.60
2017-10-13T12:57:42.886Z,1.60
2017-10-13T13:00:10.458Z,1.30
2017-10-13T13:02:38.045Z,1.40
2017-10-13T13:05:05.626Z,1.50
2017-10-13T13:07:33.355Z,1.70
2017-10-13T13:10:00.924Z,1.33
2017-10-13T13:12:30.062Z,1.70
2017-10-13T13:14:58.099Z,1.57
2017-10-13T13:17:25.760Z,1.60
2017-10-13T13:19:53.352Z,1.50
2017-10-13T13:22:20.935Z,1.50
2017-10-13T13:24:48.553Z,1.43
2017-10-13T13:27:16.477Z,1.80
2017-10-13T13:29:44.038Z,1.50
2017-10-13T13:32:11.632Z,1.73
2017-10-13T13:34:39.217Z,1.60
2017-10-13T13:37:06.800Z,1.60
2017-10-13T13:39:34.396Z,2.13
2017-10-13T13:42:02.393Z,1.53
2017-10-13T13:44:29.984Z,1.63
2017-10-13T13:46:57.708Z,1.83
2017-10-13T13:49:25.290Z,1.40
2017-10-13T13:51:52.958Z,1.40
2017-10-13T13:54:20.558Z,1.50
2017-10-13T13:56:48.131Z,2.10
2017-10-13T13:59:15.742Z,2.27
2017-10-13T14:01:44.097Z,1.63
2017-10-13T14:04:11.714Z,2.00
2017-10-13T14:06:39.343Z,1.90
2017-10-13T14:09:06.938Z,1.90
2017-10-13T14:11:34.648Z,2.07
2017-10-13T14:14:02.232Z,2.40
2017-10-13T14:16:29.960Z,2.03
2017-10-13T14:18:57.525Z,2.07
2017-10-13T14:21:25.705Z,2.00
2017-10-13T14:23:53.262Z,1.80
2017-10-13T14:26:20.871Z,1.73
2017-10-13T14:28:48.456Z,1.40
2017-10-13T14:31:16.081Z,1.57
2017-10-13T14:33:45.192Z,1.67
2017-10-13T14:36:14.205Z,1.60
2017-10-13T14:38:41.790Z,1.60
2017-10-13T14:41:09.372Z,2.00
2017-10-13T14:43:37.004Z,1.97
2017-10-13T14:46:04.580Z,2.00
2017-10-13T14:48:32.163Z,2.50
2017-10-13T14:50:59.757Z,2.00
2017-10-13T14:53:27.330Z,1.90
2017-10-13T14:55:54.945Z,2.00
2017-10-13T14:58:22.548Z,2.20
2017-10-13T15:00:50.784Z,2.00
2017-10-13T15:03:20.925Z,3.77
2017-10-13T15:05:49.018Z,4.03
2017-10-13T15:08:17.452Z,3.90
2017-10-13T15:10:46.508Z,2.73
2017-10-13T15:13:14.184Z,1.67
2017-10-13T15:15:41.744Z,2.17
2017-10-13T15:18:09.644Z,1.77
2017-10-13T15:20:37.240Z,1.63
2017-10-13T15:23:05.871Z,2.37
2017-10-13T15:25:39.411Z,1.60
2017-10-13T15:28:12.538Z,2.10
2017-10-13T15:30:45.769Z,2.00
2017-10-13T15:33:20.840Z,2.13
2017-10-13T15:35:54.515Z,2.10
2017-10-13T15:38:28.095Z,2.10
2017-10-13T15:41:01.399Z,1.80
2017-10-13T15:43:34.510Z,1.80
2017-10-13T15:46:09.439Z,1.87
2017-10-13T15:48:37.066Z,2.13
2017-10-13T15:51:11.846Z,1.70
2017-10-13T15:53:39.420Z,2.13
2017-10-13T15:56:07.113Z,1.60
2017-10-13T15:58:34.726Z,2.30
2017-10-13T16:01:02.364Z,2.00
2017-10-13T16:03:30.052Z,2.30
2017-10-13T16:05:58.044Z,2.60
2017-10-13T16:08:25.748Z,2.60
2017-10-13T16:10:53.328Z,2.60
2017-10-13T16:13:21.578Z,2.50
2017-10-13T16:15:49.311Z,2.67
2017-10-13T16:18:17.182Z,2.57
2017-10-13T16:20:45.299Z,2.40
2017-10-13T16:23:13.578Z,2.50
2017-10-13T16:25:41.186Z,2.40
2017-10-13T16:28:08.908Z,2.40
2017-10-13T16:30:36.814Z,2.10
2017-10-13T16:33:04.407Z,2.20
2017-10-13T16:35:32.874Z,2.07
2017-10-13T16:38:00.461Z,2.60
2017-10-13T16:40:28.020Z,2.00
2017-10-13T16:42:56.300Z,2.07
2017-10-13T16:45:23.883Z,3.23
2017-10-13T16:47:51.808Z,1.90
2017-10-13T16:50:19.380Z,1.60
2017-10-13T16:52:47.513Z,2.40
2017-10-13T16:55:14.403Z,2.20
2017-10-13T16:57:41.974Z,2.37
2017-10-13T17:00:10.996Z,2.53
2017-10-13T17:02:38.568Z,3.70
2017-10-13T17:05:06.294Z,5.07
2017-10-13T17:07:33.891Z,4.03
2017-10-13T17:10:01.535Z,3.80
2017-10-13T17:12:29.120Z,3.10
2017-10-13T17:14:56.700Z,3.00
2017-10-13T17:17:26.119Z,2.90
2017-10-13T17:19:53.791Z,2.73
2017-10-13T17:22:21.826Z,2.57
2017-10-13T17:24:49.397Z,2.50
2017-10-13T17:27:18.318Z,2.53
2017-10-13T17:29:45.887Z,2.50
2017-10-13T17:32:13.830Z,2.30
2017-10-13T17:34:41.553Z,2.40
2017-10-13T17:37:11.151Z,3.13
2017-10-13T17:39:38.807Z,2.90
2017-10-13T17:42:08.730Z,2.50
2017-10-13T17:44:37.395Z,2.53
2017-10-13T17:47:09.164Z,2.03
2017-10-13T17:49:36.802Z,2.70
2017-10-13T17:52:05.634Z,2.50
2017-10-13T17:54:33.457Z,3.07
2017-10-13T17:57:02.500Z,2.20
2017-10-13T17:59:30.896Z,2.50
2017-10-13T18:01:58.640Z,3.30
2017-10-13T18:04:26.554Z,2.80
2017-10-13T18:06:54.598Z,2.80
2017-10-13T18:09:22.230Z,2.43
2017-10-13T18:11:50.675Z,2.83
2017-10-13T18:14:18.438Z,2.90
2017-10-13T18:16:46.615Z,3.63
2017-10-13T18:19:14.387Z,3.37
2017-10-13T18:21:42.150Z,3.90
2017-10-13T18:24:09.976Z,3.90
2017-10-13T18:26:37.830Z,4.63
2017-10-13T18:29:06.413Z,5.17
2017-10-13T18:31:34.334Z,6.50
2017-10-13T18:34:02.175Z,5.03
2017-10-13T18:36:30.049Z,3.97
2017-10-13T18:38:58.037Z,3.10
2017-10-13T18:41:26.182Z,3.40
2017-10-13T18:43:54.961Z,13.83
2017-10-13T18:46:22.846Z,11.90
2017-10-13T18:48:50.623Z,7.30
2017-10-13T18:51:18.388Z,5.83
2017-10-13T18:53:47.294Z,4.87
2017-10-13T18:56:15.694Z,4.50
2017-10-13T18:58:55.310Z,6.23
2017-10-13T19:01:23.277Z,4.93
2017-10-13T19:03:52.658Z,3.70
2017-10-13T19:06:20.997Z,4.00
2017-10-13T19:08:49.616Z,4.13
2017-10-13T19:11:17.824Z,5.70
2017-10-13T19:13:46.710Z,6.97
2017-10-13T19:16:14.997Z,6.80
2017-10-13T19:18:43.982Z,6.67
2017-10-13T19:21:11.832Z,7.17
2017-10-13T19:23:42.741Z,6.90
2017-10-13T19:26:10.759Z,7.10
2017-10-13T19:28:38.624Z,7.00
2017-10-13T19:31:07.416Z,7.30
2017-10-13T19:33:36.255Z,8.30
2017-10-13T19:36:04.489Z,7.83
2017-10-13T19:51:33.671Z,6.80
2017-10-13T19:54:02.049Z,7.10
2017-10-13T19:56:30.950Z,5.70
2017-10-13T19:58:59.934Z,4.90
2017-10-13T20:01:28.414Z,4.70
2017-10-13T20:03:56.365Z,5.10
2017-10-13T20:06:24.349Z,5.27
2017-10-13T20:08:52.839Z,4.70
2017-10-13T20:11:21.705Z,4.30
2017-10-13T20:13:50.843Z,4.77
2017-10-13T20:16:19.408Z,3.97
2017-10-13T20:18:48.195Z,3.60
2017-10-13T20:21:16.147Z,4.50
2017-10-13T20:23:44.016Z,4.43
2017-10-13T20:26:11.872Z,4.90
2017-10-13T20:28:40.954Z,4.60
2017-10-13T20:31:08.798Z,4.40
2017-10-13T20:33:36.666Z,4.30
2017-10-13T20:36:04.390Z,5.73
2017-10-13T20:38:32.987Z,7.33
2017-10-13T20:41:00.827Z,6.27
2017-10-13T20:43:28.591Z,6.47
2017-10-13T20:45:56.841Z,5.90
2017-10-13T20:48:25.229Z,6.13
2017-10-13T20:50:52.983Z,5.80
2017-10-13T20:53:20.614Z,5.40
2017-10-13T20:55:48.254Z,5.03
2017-10-13T20:58:18.119Z,5.00
2017-10-13T21:00:45.737Z,6.67
2017-10-13T21:03:13.387Z,12.10
2017-10-13T21:05:40.994Z,9.20
2017-10-13T21:08:09.356Z,7.57
2017-10-13T21:10:36.946Z,7.20
2017-10-13T21:13:04.545Z,6.33
2017-10-13T21:15:32.177Z,6.00
2017-10-13T21:17:59.793Z,5.00
2017-10-13T21:20:27.412Z,4.93
2017-10-13T21:22:55.042Z,5.80
2017-10-13T21:25:22.830Z,5.83
2017-10-13T21:27:50.834Z,5.10
2017-10-13T21:30:18.404Z,4.83
2017-10-13T21:32:46.046Z,4.77
2017-10-13T21:35:13.646Z,5.20
2017-10-13T21:37:42.537Z,4.50
2017-10-13T21:40:10.501Z,4.73
2017-10-13T21:42:39.460Z,4.83
2017-10-13T21:45:07.922Z,5.10
2017-10-13T21:47:35.511Z,4.37
2017-10-13T21:50:03.899Z,4.40
2017-10-13T21:52:31.529Z,4.73
2017-10-13T21:54:59.114Z,4.70
2017-10-13T21:57:26.722Z,4.80
2017-10-13T21:59:54.306Z,4.47
2017-10-13T22:02:21.957Z,4.20
2017-10-13T22:04:54.992Z,4.80
2017-10-13T22:07:22.992Z,4.20
2017-10-13T22:09:51.358Z,5.03
2017-10-13T22:12:19.253Z,4.40
2017-10-13T22:14:46.858Z,5.83
2017-10-13T22:17:14.668Z,4.73
2017-10-13T22:19:42.277Z,4.10
2017-10-13T22:22:10.318Z,5.00
2017-10-13T22:24:37.881Z,5.20
2017-10-13T22:27:05.487Z,5.23
2017-10-13T22:29:33.082Z,5.57
2017-10-13T22:32:00.692Z,5.53
2017-10-13T22:34:28.260Z,5.90
2017-10-13T22:36:56.711Z,5.20
2017-10-13T22:39:25.750Z,6.10
2017-10-13T22:41:53.309Z,5.40
2017-10-13T22:44:20.879Z,5.03
2017-10-13T22:46:48.793Z,4.53
2017-10-13T22:49:16.384Z,5.73
2017-10-13T22:51:44.279Z,5.23
2017-10-13T22:54:12.177Z,5.53
2017-10-13T22:56:39.767Z,4.40
2017-10-13T22:59:07.365Z,5.77
2017-10-13T23:01:34.985Z,4.40
2017-10-13T23:04:02.587Z,4.10
2017-10-13T23:06:30.150Z,3.70
2017-10-13T23:08:58.147Z,3.87
2017-10-13T23:11:26.221Z,4.00
2017-10-13T23:13:53.816Z,3.60
2017-10-13T23:16:21.421Z,4.20
2017-10-13T23:18:49.354Z,3.97
2017-10-13T23:21:16.951Z,3.60
2017-10-13T23:23:44.611Z,4.70
2017-10-13T23:26:12.210Z,3.87
2017-10-13T23:28:39.775Z,3.87
2017-10-13T23:31:07.981Z,4.27
2017-10-13T23:33:36.245Z,4.70
2017-10-13T23:36:03.849Z,4.03
2017-10-13T23:38:31.444Z,4.37
2017-10-13T23:40:59.412Z,4.60
2017-10-13T23:43:26.988Z,4.33
2017-10-13T23:45:54.530Z,3.83
2017-10-13T23:48:22.202Z,4.50
2017-10-13T23:50:49.779Z,3.77
2017-10-13T23:53:17.355Z,3.80
2017-10-13T23:55:44.946Z,4.43
2017-10-13T23:58:12.548Z,4.10
